sensor_id;sensor_type;location;lat;lon;timestamp;P1;P2;P0
59546;PMS5003;45368;55.002;-1.592;2022-11-20T00:02:06;12;10;
59546;PMS5003;45368;55.002;-1.592;2022-11-20T00:04:34;9;8;
59546;PMS5003;45368;55.002;-1.592;2022-11-20T00:07:01;8;7;
59546;PMS5003;45368;55.002;-1.592;2022-11-20T00:09:29;10;10;
59546;PMS5003;45368;55.002;-1.592;2022-11-20T00:11:56;11;8;
59546;PMS5003;45368;55.002;-1.592;2022-11-20T00:14:23;14;10;
59546;PMS5003;45368;55.002;-1.592;2022-11-20T00:16:51;14;11;
59546;PMS5003;45368;55.002;-1.592;2022-11-20T00:19:18;11;10;
59546;PMS5003;45368;55.002;-1.592;2022-11-20T00:21:45;9;7;
59546;PMS5003;45368;55.002;-1.592;2022-11-20T00:24:13;12;11;
59546;PMS5003;45368;55.002;-1.592;2022-11-20T00:26:40;10;8;
59546;PMS5003;45368;55.002;-1.592;2022-11-20T00:29:08;13;11;
59546;PMS5003;45368;55.002;-1.592;2022-11-20T00:31:36;10;10;
59546;PMS5003;45368;55.002;-1.592;2022-11-20T00:34:04;12;12;
59546;PMS5003;45368;55.002;-1.592;2022-11-20T00:36:32;12;11;
59546;PMS5003;45368;55.002;-1.592;2022-11-20T00:39:00;11;10;
59546;PMS5003;45368;55.002;-1.592;2022-11-20T00:41:28;10;10;
59546;PMS5003;45368;55.002;-1.592;2022-11-20T00:43:56;8;8;
59546;PMS5003;45368;55.002;-1.592;2022-11-20T00:46:24;13;12;
59546;PMS5003;45368;55.002;-1.592;2022-11-20T00:48:53;17;13;
59546;PMS5003;45368;55.002;-1.592;2022-11-20T00:51:22;14;11;
59546;PMS5003;45368;55.002;-1.592;2022-11-20T00:53:52;11;10;
59546;PMS5003;45368;55.002;-1.592;2022-11-20T00:56:22;11;10;
59546;PMS5003;45368;55.002;-1.592;2022-11-20T00:58:50;10;10;
59546;PMS5003;45368;55.002;-1.592;2022-11-20T01:01:18;11;11;
59546;PMS5003;45368;55.002;-1.592;2022-11-20T01:03:47;17;15;
59546;PMS5003;45368;55.002;-1.592;2022-11-20T01:06:17;13;12;
59546;PMS5003;45368;55.002;-1.592;2022-11-20T01:08:46;17;15;
59546;PMS5003;45368;55.002;-1.592;2022-11-20T01:11:15;15;12;
59546;PMS5003;45368;55.002;-1.592;2022-11-20T01:13:44;15;14;
59546;PMS5003;45368;55.002;-1.592;2022-11-20T01:16:12;18;13;
59546;PMS5003;45368;55.002;-1.592;2022-11-20T01:18:42;16;14;
59546;PMS5003;45368;55.002;-1.592;2022-11-20T01:21:11;20;17;
59546;PMS5003;45368;55.002;-1.592;2022-11-20T01:23:41;19;18;
59546;PMS5003;45368;55.002;-1.592;2022-11-20T01:26:10;16;15;
59546;PMS5003;45368;55.002;-1.592;2022-11-20T01:28:39;16;15;
59546;PMS5003;45368;55.002;-1.592;2022-11-20T01:31:11;19;18;
59546;PMS5003;45368;55.002;-1.592;2022-11-20T01:33:41;17;16;
59546;PMS5003;45368;55.002;-1.592;2022-11-20T01:36:09;18;17;
59546;PMS5003;45368;55.002;-1.592;2022-11-20T01:38:37;24;21;
59546;PMS5003;45368;55.002;-1.592;2022-11-20T01:41:05;25;20;
59546;PMS5003;45368;55.002;-1.592;2022-11-20T01:43:34;22;21;
59546;PMS5003;45368;55.002;-1.592;2022-11-20T01:46:04;21;19;
59546;PMS5003;45368;55.002;-1.592;2022-11-20T01:48:41;23;19;
59546;PMS5003;45368;55.002;-1.592;2022-11-20T01:51:17;21;19;
59546;PMS5003;45368;55.002;-1.592;2022-11-20T01:53:51;25;23;
59546;PMS5003;45368;55.002;-1.592;2022-11-20T01:56:20;25;23;
59546;PMS5003;45368;55.002;-1.592;2022-11-20T01:58:50;23;21;
59546;PMS5003;45368;55.002;-1.592;2022-11-20T02:01:22;25;23;
59546;PMS5003;45368;55.002;-1.592;2022-11-20T02:03:49;25;22;
59546;PMS5003;45368;55.002;-1.592;2022-11-20T02:06:19;28;25;
59546;PMS5003;45368;55.002;-1.592;2022-11-20T02:08:50;28;26;
59546;PMS5003;45368;55.002;-1.592;2022-11-20T02:11:18;27;26;
59546;PMS5003;45368;55.002;-1.592;2022-11-20T02:13:46;27;24;
59546;PMS5003;45368;55.002;-1.592;2022-11-20T02:16:16;24;23;
59546;PMS5003;45368;55.002;-1.592;2022-11-20T02:18:47;34;30;
59546;PMS5003;45368;55.002;-1.592;2022-11-20T02:21:19;31;29;
59546;PMS5003;45368;55.002;-1.592;2022-11-20T02:23:55;35;32;
59546;PMS5003;45368;55.002;-1.592;2022-11-20T02:26:26;31;26;
59546;PMS5003;45368;55.002;-1.592;2022-11-20T02:28:56;30;28;
59546;PMS5003;45368;55.002;-1.592;2022-11-20T02:31:24;29;28;
59546;PMS5003;45368;55.002;-1.592;2022-11-20T02:33:54;30;27;
59546;PMS5003;45368;55.002;-1.592;2022-11-20T02:36:22;35;34;
59546;PMS5003;45368;55.002;-1.592;2022-11-20T02:38:54;37;33;
59546;PMS5003;45368;55.002;-1.592;2022-11-20T02:41:22;35;34;
59546;PMS5003;45368;55.002;-1.592;2022-11-20T02:43:58;27;27;
59546;PMS5003;45368;55.002;-1.592;2022-11-20T02:46:26;33;31;
59546;PMS5003;45368;55.002;-1.592;2022-11-20T02:48:53;33;31;
59546;PMS5003;45368;55.002;-1.592;2022-11-20T02:51:20;28;26;
59546;PMS5003;45368;55.002;-1.592;2022-11-20T02:53:48;29;27;
59546;PMS5003;45368;55.002;-1.592;2022-11-20T02:56:16;31;27;
59546;PMS5003;45368;55.002;-1.592;2022-11-20T02:58:43;32;30;
59546;PMS5003;45368;55.002;-1.592;2022-11-20T03:01:11;39;30;
59546;PMS5003;45368;55.002;-1.592;2022-11-20T03:03:38;28;27;
59546;PMS5003;45368;55.002;-1.592;2022-11-20T03:06:06;26;24;
59546;PMS5003;45368;55.002;-1.592;2022-11-20T03:08:47;33;32;
59546;PMS5003;45368;55.002;-1.592;2022-11-20T03:11:14;29;28;
59546;PMS5003;45368;55.002;-1.592;2022-11-20T03:13:41;27;25;
59546;PMS5003;45368;55.002;-1.592;2022-11-20T03:16:10;32;30;
59546;PMS5003;45368;55.002;-1.592;2022-11-20T03:18:40;30;28;
59546;PMS5003;45368;55.002;-1.592;2022-11-20T03:21:09;29;29;
59546;PMS5003;45368;55.002;-1.592;2022-11-20T03:23:37;31;28;
59546;PMS5003;45368;55.002;-1.592;2022-11-20T03:26:07;26;24;
59546;PMS5003;45368;55.002;-1.592;2022-11-20T03:28:36;35;27;
59546;PMS5003;45368;55.002;-1.592;2022-11-20T03:31:05;29;27;
59546;PMS5003;45368;55.002;-1.592;2022-11-20T03:33:33;31;27;
59546;PMS5003;45368;55.002;-1.592;2022-11-20T03:36:01;23;23;
59546;PMS5003;45368;55.002;-1.592;2022-11-20T03:38:29;24;23;
59546;PMS5003;45368;55.002;-1.592;2022-11-20T03:40:58;25;25;
59546;PMS5003;45368;55.002;-1.592;2022-11-20T03:43:26;30;23;
59546;PMS5003;45368;55.002;-1.592;2022-11-20T03:45:54;31;26;
59546;PMS5003;45368;55.002;-1.592;2022-11-20T03:48:21;32;32;
59546;PMS5003;45368;55.002;-1.592;2022-11-20T03:50:48;33;29;
59546;PMS5003;45368;55.002;-1.592;2022-11-20T03:53:15;32;26;
59546;PMS5003;45368;55.002;-1.592;2022-11-20T03:55:42;27;26;
59546;PMS5003;45368;55.002;-1.592;2022-11-20T03:58:10;33;31;
59546;PMS5003;45368;55.002;-1.592;2022-11-20T04:00:37;31;27;
59546;PMS5003;45368;55.002;-1.592;2022-11-20T04:03:04;29;26;
59546;PMS5003;45368;55.002;-1.592;2022-11-20T04:05:32;27;25;
59546;PMS5003;45368;55.002;-1.592;2022-11-20T04:08:00;28;26;
59546;PMS5003;45368;55.002;-1.592;2022-11-20T04:10:27;30;28;
59546;PMS5003;45368;55.002;-1.592;2022-11-20T04:12:55;28;27;
59546;PMS5003;45368;55.002;-1.592;2022-11-20T04:15:22;28;24;
59546;PMS5003;45368;55.002;-1.592;2022-11-20T04:17:50;31;28;
59546;PMS5003;45368;55.002;-1.592;2022-11-20T04:20:17;28;24;
59546;PMS5003;45368;55.002;-1.592;2022-11-20T04:22:44;24;23;
59546;PMS5003;45368;55.002;-1.592;2022-11-20T04:25:11;30;28;
59546;PMS5003;45368;55.002;-1.592;2022-11-20T04:27:38;30;27;
59546;PMS5003;45368;55.002;-1.592;2022-11-20T04:30:06;29;24;
59546;PMS5003;45368;55.002;-1.592;2022-11-20T04:32:34;24;23;
59546;PMS5003;45368;55.002;-1.592;2022-11-20T04:35:01;31;29;
59546;PMS5003;45368;55.002;-1.592;2022-11-20T04:37:28;27;25;
59546;PMS5003;45368;55.002;-1.592;2022-11-20T04:39:55;27;26;
59546;PMS5003;45368;55.002;-1.592;2022-11-20T04:42:22;29;26;
59546;PMS5003;45368;55.002;-1.592;2022-11-20T04:44:49;33;31;
59546;PMS5003;45368;55.002;-1.592;2022-11-20T04:47:17;28;26;
59546;PMS5003;45368;55.002;-1.592;2022-11-20T04:49:44;32;30;
59546;PMS5003;45368;55.002;-1.592;2022-11-20T04:52:11;28;27;
59546;PMS5003;45368;55.002;-1.592;2022-11-20T04:54:38;30;28;
59546;PMS5003;45368;55.002;-1.592;2022-11-20T04:57:05;35;31;
59546;PMS5003;45368;55.002;-1.592;2022-11-20T04:59:33;29;27;
59546;PMS5003;45368;55.002;-1.592;2022-11-20T05:02:00;33;27;
59546;PMS5003;45368;55.002;-1.592;2022-11-20T05:04:27;32;30;
59546;PMS5003;45368;55.002;-1.592;2022-11-20T05:06:55;27;27;
59546;PMS5003;45368;55.002;-1.592;2022-11-20T05:09:24;33;32;
59546;PMS5003;45368;55.002;-1.592;2022-11-20T05:11:51;32;32;
59546;PMS5003;45368;55.002;-1.592;2022-11-20T05:14:18;33;31;
59546;PMS5003;45368;55.002;-1.592;2022-11-20T05:16:45;33;28;
59546;PMS5003;45368;55.002;-1.592;2022-11-20T05:19:13;30;28;
59546;PMS5003;45368;55.002;-1.592;2022-11-20T05:21:40;34;33;
59546;PMS5003;45368;55.002;-1.592;2022-11-20T05:24:08;34;33;
59546;PMS5003;45368;55.002;-1.592;2022-11-20T05:26:36;30;27;
59546;PMS5003;45368;55.002;-1.592;2022-11-20T05:29:04;35;32;
59546;PMS5003;45368;55.002;-1.592;2022-11-20T05:31:31;32;30;
59546;PMS5003;45368;55.002;-1.592;2022-11-20T05:33:58;38;35;
59546;PMS5003;45368;55.002;-1.592;2022-11-20T05:36:25;31;31;
59546;PMS5003;45368;55.002;-1.592;2022-11-20T05:38:52;32;31;
59546;PMS5003;45368;55.002;-1.592;2022-11-20T05:41:20;28;28;
59546;PMS5003;45368;55.002;-1.592;2022-11-20T05:43:47;31;28;
59546;PMS5003;45368;55.002;-1.592;2022-11-20T05:46:16;36;33;
59546;PMS5003;45368;55.002;-1.592;2022-11-20T05:48:45;33;30;
59546;PMS5003;45368;55.002;-1.592;2022-11-20T05:51:14;34;33;
59546;PMS5003;45368;55.002;-1.592;2022-11-20T05:53:43;38;30;
59546;PMS5003;45368;55.002;-1.592;2022-11-20T05:56:11;28;26;
59546;PMS5003;45368;55.002;-1.592;2022-11-20T05:58:40;30;27;
59546;PMS5003;45368;55.002;-1.592;2022-11-20T06:01:08;26;24;
59546;PMS5003;45368;55.002;-1.592;2022-11-20T06:03:37;35;34;
59546;PMS5003;45368;55.002;-1.592;2022-11-20T06:06:05;30;30;
59546;PMS5003;45368;55.002;-1.592;2022-11-20T06:08:33;32;30;
59546;PMS5003;45368;55.002;-1.592;2022-11-20T06:11:04;29;26;
59546;PMS5003;45368;55.002;-1.592;2022-11-20T06:13:31;25;23;
59546;PMS5003;45368;55.002;-1.592;2022-11-20T06:15:59;27;25;
59546;PMS5003;45368;55.002;-1.592;2022-11-20T06:18:27;27;27;
59546;PMS5003;45368;55.002;-1.592;2022-11-20T06:21:02;26;25;
59546;PMS5003;45368;55.002;-1.592;2022-11-20T06:23:33;29;27;
59546;PMS5003;45368;55.002;-1.592;2022-11-20T06:26:01;28;27;
59546;PMS5003;45368;55.002;-1.592;2022-11-20T06:28:29;27;24;
59546;PMS5003;45368;55.002;-1.592;2022-11-20T06:30:57;27;25;
59546;PMS5003;45368;55.002;-1.592;2022-11-20T06:33:24;26;25;
59546;PMS5003;45368;55.002;-1.592;2022-11-20T06:35:52;25;23;
59546;PMS5003;45368;55.002;-1.592;2022-11-20T06:38:22;25;24;
59546;PMS5003;45368;55.002;-1.592;2022-11-20T06:40:49;34;31;
59546;PMS5003;45368;55.002;-1.592;2022-11-20T06:43:16;29;27;
59546;PMS5003;45368;55.002;-1.592;2022-11-20T06:45:43;27;24;
59546;PMS5003;45368;55.002;-1.592;2022-11-20T06:48:11;34;33;
59546;PMS5003;45368;55.002;-1.592;2022-11-20T06:50:38;22;21;
59546;PMS5003;45368;55.002;-1.592;2022-11-20T06:53:05;26;26;
59546;PMS5003;45368;55.002;-1.592;2022-11-20T06:55:33;26;26;
59546;PMS5003;45368;55.002;-1.592;2022-11-20T06:58:00;26;25;
59546;PMS5003;45368;55.002;-1.592;2022-11-20T07:00:27;27;26;
59546;PMS5003;45368;55.002;-1.592;2022-11-20T07:02:54;24;24;
59546;PMS5003;45368;55.002;-1.592;2022-11-20T07:05:21;28;25;
59546;PMS5003;45368;55.002;-1.592;2022-11-20T07:07:48;27;24;
59546;PMS5003;45368;55.002;-1.592;2022-11-20T07:10:15;27;25;
59546;PMS5003;45368;55.002;-1.592;2022-11-20T07:12:48;23;22;
59546;PMS5003;45368;55.002;-1.592;2022-11-20T07:15:16;26;23;
59546;PMS5003;45368;55.002;-1.592;2022-11-20T07:17:44;28;27;
59546;PMS5003;45368;55.002;-1.592;2022-11-20T07:20:12;22;21;
59546;PMS5003;45368;55.002;-1.592;2022-11-20T07:22:39;23;22;
59546;PMS5003;45368;55.002;-1.592;2022-11-20T07:25:07;25;22;
59546;PMS5003;45368;55.002;-1.592;2022-11-20T07:27:36;20;18;
59546;PMS5003;45368;55.002;-1.592;2022-11-20T07:30:03;22;21;
59546;PMS5003;45368;55.002;-1.592;2022-11-20T07:32:31;17;17;
59546;PMS5003;45368;55.002;-1.592;2022-11-20T07:34:59;21;21;
59546;PMS5003;45368;55.002;-1.592;2022-11-20T07:37:26;22;21;
59546;PMS5003;45368;55.002;-1.592;2022-11-20T07:39:53;21;21;
59546;PMS5003;45368;55.002;-1.592;2022-11-20T07:42:21;23;22;
59546;PMS5003;45368;55.002;-1.592;2022-11-20T07:44:48;23;21;
59546;PMS5003;45368;55.002;-1.592;2022-11-20T07:47:16;23;21;
59546;PMS5003;45368;55.002;-1.592;2022-11-20T07:49:43;20;19;
59546;PMS5003;45368;55.002;-1.592;2022-11-20T07:52:11;21;19;
59546;PMS5003;45368;55.002;-1.592;2022-11-20T07:54:38;25;22;
59546;PMS5003;45368;55.002;-1.592;2022-11-20T07:57:05;23;20;
59546;PMS5003;45368;55.002;-1.592;2022-11-20T07:59:32;23;21;
59546;PMS5003;45368;55.002;-1.592;2022-11-20T08:02:00;26;23;
59546;PMS5003;45368;55.002;-1.592;2022-11-20T08:04:27;20;20;
59546;PMS5003;45368;55.002;-1.592;2022-11-20T08:06:54;21;21;
59546;PMS5003;45368;55.002;-1.592;2022-11-20T08:09:22;21;20;
59546;PMS5003;45368;55.002;-1.592;2022-11-20T08:11:49;27;24;
59546;PMS5003;45368;55.002;-1.592;2022-11-20T08:14:16;28;27;
59546;PMS5003;45368;55.002;-1.592;2022-11-20T08:16:45;26;24;
59546;PMS5003;45368;55.002;-1.592;2022-11-20T08:19:14;24;23;
59546;PMS5003;45368;55.002;-1.592;2022-11-20T08:21:43;34;30;
59546;PMS5003;45368;55.002;-1.592;2022-11-20T08:24:31;23;23;
59546;PMS5003;45368;55.002;-1.592;2022-11-20T08:27:04;24;24;
59546;PMS5003;45368;55.002;-1.592;2022-11-20T08:29:31;22;22;
59546;PMS5003;45368;55.002;-1.592;2022-11-20T08:32:05;30;28;
59546;PMS5003;45368;55.002;-1.592;2022-11-20T08:34:32;26;22;
59546;PMS5003;45368;55.002;-1.592;2022-11-20T08:37:01;28;26;
59546;PMS5003;45368;55.002;-1.592;2022-11-20T08:39:28;28;27;
59546;PMS5003;45368;55.002;-1.592;2022-11-20T08:41:55;27;26;
59546;PMS5003;45368;55.002;-1.592;2022-11-20T08:44:23;22;22;
59546;PMS5003;45368;55.002;-1.592;2022-11-20T08:46:50;23;23;
59546;PMS5003;45368;55.002;-1.592;2022-11-20T08:49:17;26;24;
59546;PMS5003;45368;55.002;-1.592;2022-11-20T08:51:44;27;25;
59546;PMS5003;45368;55.002;-1.592;2022-11-20T08:54:11;20;19;
59546;PMS5003;45368;55.002;-1.592;2022-11-20T08:56:39;26;25;
59546;PMS5003;45368;55.002;-1.592;2022-11-20T08:59:06;30;28;
59546;PMS5003;45368;55.002;-1.592;2022-11-20T09:01:33;22;20;
59546;PMS5003;45368;55.002;-1.592;2022-11-20T09:04:08;24;23;
59546;PMS5003;45368;55.002;-1.592;2022-11-20T09:06:42;25;23;
59546;PMS5003;45368;55.002;-1.592;2022-11-20T09:09:09;26;26;
59546;PMS5003;45368;55.002;-1.592;2022-11-20T09:11:36;23;22;
59546;PMS5003;45368;55.002;-1.592;2022-11-20T09:14:04;25;23;
59546;PMS5003;45368;55.002;-1.592;2022-11-20T09:16:41;27;24;
59546;PMS5003;45368;55.002;-1.592;2022-11-20T09:19:17;32;28;
59546;PMS5003;45368;55.002;-1.592;2022-11-20T09:21:43;30;28;
59546;PMS5003;45368;55.002;-1.592;2022-11-20T09:24:11;24;23;
59546;PMS5003;45368;55.002;-1.592;2022-11-20T09:26:38;26;25;
59546;PMS5003;45368;55.002;-1.592;2022-11-20T09:29:06;26;24;
59546;PMS5003;45368;55.002;-1.592;2022-11-20T09:31:33;25;23;
59546;PMS5003;45368;55.002;-1.592;2022-11-20T09:34:01;31;27;
59546;PMS5003;45368;55.002;-1.592;2022-11-20T09:36:28;26;23;
59546;PMS5003;45368;55.002;-1.592;2022-11-20T09:38:55;20;20;
59546;PMS5003;45368;55.002;-1.592;2022-11-20T09:41:29;23;22;
59546;PMS5003;45368;55.002;-1.592;2022-11-20T09:44:10;25;22;
59546;PMS5003;45368;55.002;-1.592;2022-11-20T09:46:48;26;25;
59546;PMS5003;45368;55.002;-1.592;2022-11-20T09:49:27;24;24;
59546;PMS5003;45368;55.002;-1.592;2022-11-20T09:52:12;25;24;
59546;PMS5003;45368;55.002;-1.592;2022-11-20T09:54:47;24;22;
59546;PMS5003;45368;55.002;-1.592;2022-11-20T09:57:17;22;21;
59546;PMS5003;45368;55.002;-1.592;2022-11-20T09:59:49;20;20;
59546;PMS5003;45368;55.002;-1.592;2022-11-20T10:02:23;24;23;
59546;PMS5003;45368;55.002;-1.592;2022-11-20T10:04:57;24;23;
59546;PMS5003;45368;55.002;-1.592;2022-11-20T10:07:32;28;24;
59546;PMS5003;45368;55.002;-1.592;2022-11-20T10:10:13;23;22;
59546;PMS5003;45368;55.002;-1.592;2022-11-20T10:12:46;26;24;
59546;PMS5003;45368;55.002;-1.592;2022-11-20T10:15:26;29;28;
59546;PMS5003;45368;55.002;-1.592;2022-11-20T10:18:05;23;21;
59546;PMS5003;45368;55.002;-1.592;2022-11-20T10:20:44;25;24;
59546;PMS5003;45368;55.002;-1.592;2022-11-20T10:23:23;29;27;
59546;PMS5003;45368;55.002;-1.592;2022-11-20T10:26:00;21;20;
59546;PMS5003;45368;55.002;-1.592;2022-11-20T10:28:33;23;20;
59546;PMS5003;45368;55.002;-1.592;2022-11-20T10:31:14;22;20;
59546;PMS5003;45368;55.002;-1.592;2022-11-20T10:33:51;21;20;
59546;PMS5003;45368;55.002;-1.592;2022-11-20T10:36:23;23;22;
59546;PMS5003;45368;55.002;-1.592;2022-11-20T10:38:56;22;21;
59546;PMS5003;45368;55.002;-1.592;2022-11-20T10:41:28;24;22;
59546;PMS5003;45368;55.002;-1.592;2022-11-20T10:44:01;20;19;
59546;PMS5003;45368;55.002;-1.592;2022-11-20T10:46:35;22;20;
59546;PMS5003;45368;55.002;-1.592;2022-11-20T10:49:10;19;19;
59546;PMS5003;45368;55.002;-1.592;2022-11-20T10:51:44;19;17;
59546;PMS5003;45368;55.002;-1.592;2022-11-20T10:54:27;20;19;
59546;PMS5003;45368;55.002;-1.592;2022-11-20T10:57:05;21;17;
59546;PMS5003;45368;55.002;-1.592;2022-11-20T10:59:45;21;19;
59546;PMS5003;45368;55.002;-1.592;2022-11-20T11:02:31;18;18;
59546;PMS5003;45368;55.002;-1.592;2022-11-20T11:05:06;19;15;
59546;PMS5003;45368;55.002;-1.592;2022-11-20T11:07:41;20;18;
59546;PMS5003;45368;55.002;-1.592;2022-11-20T11:10:13;20;18;
59546;PMS5003;45368;55.002;-1.592;2022-11-20T11:12:43;23;20;
59546;PMS5003;45368;55.002;-1.592;2022-11-20T11:15:13;16;15;
59546;PMS5003;45368;55.002;-1.592;2022-11-20T11:17:51;16;16;
59546;PMS5003;45368;55.002;-1.592;2022-11-20T11:20:19;17;16;
59546;PMS5003;45368;55.002;-1.592;2022-11-20T11:22:48;16;14;
59546;PMS5003;45368;55.002;-1.592;2022-11-20T11:25:21;13;12;
59546;PMS5003;45368;55.002;-1.592;2022-11-20T11:27:52;17;16;
59546;PMS5003;45368;55.002;-1.592;2022-11-20T11:30:20;22;20;
59546;PMS5003;45368;55.002;-1.592;2022-11-20T11:32:48;15;12;
59546;PMS5003;45368;55.002;-1.592;2022-11-20T11:35:19;10;10;
59546;PMS5003;45368;55.002;-1.592;2022-11-20T11:37:49;12;12;
59546;PMS5003;45368;55.002;-1.592;2022-11-20T11:40:18;11;10;
59546;PMS5003;45368;55.002;-1.592;2022-11-20T11:42:47;5;5;
59546;PMS5003;45368;55.002;-1.592;2022-11-20T11:45:20;6;6;
59546;PMS5003;45368;55.002;-1.592;2022-11-20T11:47:48;3;2;
59546;PMS5003;45368;55.002;-1.592;2022-11-20T11:50:19;1;1;
59546;PMS5003;45368;55.002;-1.592;2022-11-20T11:52:50;1;0;
59546;PMS5003;45368;55.002;-1.592;2022-11-20T11:55:26;1;1;
59546;PMS5003;45368;55.002;-1.592;2022-11-20T11:58:00;0;0;
59546;PMS5003;45368;55.002;-1.592;2022-11-20T12:00:38;1;1;
59546;PMS5003;45368;55.002;-1.592;2022-11-20T12:03:13;1;1;
59546;PMS5003;45368;55.002;-1.592;2022-11-20T12:05:47;2;0;
59546;PMS5003;45368;55.002;-1.592;2022-11-20T12:08:19;3;3;
59546;PMS5003;45368;55.002;-1.592;2022-11-20T12:10:53;1;1;
59546;PMS5003;45368;55.002;-1.592;2022-11-20T12:13:28;0;0;
59546;PMS5003;45368;55.002;-1.592;2022-11-20T12:16:09;2;1;
59546;PMS5003;45368;55.002;-1.592;2022-11-20T12:18:39;4;2;
59546;PMS5003;45368;55.002;-1.592;2022-11-20T12:21:11;2;1;
59546;PMS5003;45368;55.002;-1.592;2022-11-20T12:23:50;0;0;
59546;PMS5003;45368;55.002;-1.592;2022-11-20T12:26:34;2;1;
59546;PMS5003;45368;55.002;-1.592;2022-11-20T12:29:14;0;0;
59546;PMS5003;45368;55.002;-1.592;2022-11-20T12:31:54;2;1;
59546;PMS5003;45368;55.002;-1.592;2022-11-20T12:34:47;2;1;
59546;PMS5003;45368;55.002;-1.592;2022-11-20T12:37:30;1;0;
59546;PMS5003;45368;55.002;-1.592;2022-11-20T12:40:12;3;0;
59546;PMS5003;45368;55.002;-1.592;2022-11-20T12:42:53;1;1;
59546;PMS5003;45368;55.002;-1.592;2022-11-20T12:45:31;2;0;
59546;PMS5003;45368;55.002;-1.592;2022-11-20T12:48:26;2;1;
59546;PMS5003;45368;55.002;-1.592;2022-11-20T12:51:08;1;1;
59546;PMS5003;45368;55.002;-1.592;2022-11-20T12:53:51;1;1;
59546;PMS5003;45368;55.002;-1.592;2022-11-20T12:56:35;3;1;
59546;PMS5003;45368;55.002;-1.592;2022-11-20T12:59:16;2;1;
59546;PMS5003;45368;55.002;-1.592;2022-11-20T13:01:53;0;0;
59546;PMS5003;45368;55.002;-1.592;2022-11-20T13:04:34;2;1;
59546;PMS5003;45368;55.002;-1.592;2022-11-20T13:07:21;2;1;
59546;PMS5003;45368;55.002;-1.592;2022-11-20T13:09:51;2;1;
59546;PMS5003;45368;55.002;-1.592;2022-11-20T13:12:22;3;2;
59546;PMS5003;45368;55.002;-1.592;2022-11-20T13:14:58;2;1;
59546;PMS5003;45368;55.002;-1.592;2022-11-20T13:17:36;2;1;
59546;PMS5003;45368;55.002;-1.592;2022-11-20T13:20:12;3;3;
59546;PMS5003;45368;55.002;-1.592;2022-11-20T13:22:43;2;1;
59546;PMS5003;45368;55.002;-1.592;2022-11-20T13:25:21;1;1;
59546;PMS5003;45368;55.002;-1.592;2022-11-20T13:27:49;3;1;
59546;PMS5003;45368;55.002;-1.592;2022-11-20T13:30:19;1;1;
59546;PMS5003;45368;55.002;-1.592;2022-11-20T13:32:48;3;2;
59546;PMS5003;45368;55.002;-1.592;2022-11-20T13:35:26;4;1;
59546;PMS5003;45368;55.002;-1.592;2022-11-20T13:38:04;3;2;
59546;PMS5003;45368;55.002;-1.592;2022-11-20T13:40:33;4;2;
59546;PMS5003;45368;55.002;-1.592;2022-11-20T13:43:07;3;2;
59546;PMS5003;45368;55.002;-1.592;2022-11-20T13:45:42;4;2;
59546;PMS5003;45368;55.002;-1.592;2022-11-20T13:48:20;3;1;
59546;PMS5003;45368;55.002;-1.592;2022-11-20T13:50:54;3;2;
59546;PMS5003;45368;55.002;-1.592;2022-11-20T13:53:32;3;3;
59546;PMS5003;45368;55.002;-1.592;2022-11-20T13:56:11;1;0;
59546;PMS5003;45368;55.002;-1.592;2022-11-20T13:58:50;2;2;
59546;PMS5003;45368;55.002;-1.592;2022-11-20T14:01:26;2;2;
59546;PMS5003;45368;55.002;-1.592;2022-11-20T14:03:56;5;5;
59546;PMS5003;45368;55.002;-1.592;2022-11-20T14:06:26;2;2;
59546;PMS5003;45368;55.002;-1.592;2022-11-20T14:08:55;4;3;
59546;PMS5003;45368;55.002;-1.592;2022-11-20T14:11:26;4;1;
59546;PMS5003;45368;55.002;-1.592;2022-11-20T14:13:56;2;2;
59546;PMS5003;45368;55.002;-1.592;2022-11-20T14:16:26;1;1;
59546;PMS5003;45368;55.002;-1.592;2022-11-20T14:19:23;4;3;
59546;PMS5003;45368;55.002;-1.592;2022-11-20T14:21:54;4;2;
59546;PMS5003;45368;55.002;-1.592;2022-11-20T14:24:35;4;4;
59546;PMS5003;45368;55.002;-1.592;2022-11-20T14:27:02;4;3;
59546;PMS5003;45368;55.002;-1.592;2022-11-20T14:29:33;10;9;
59546;PMS5003;45368;55.002;-1.592;2022-11-20T14:32:01;5;5;
59546;PMS5003;45368;55.002;-1.592;2022-11-20T14:34:30;7;5;
59546;PMS5003;45368;55.002;-1.592;2022-11-20T14:37:03;4;4;
59546;PMS5003;45368;55.002;-1.592;2022-11-20T14:39:33;4;3;
59546;PMS5003;45368;55.002;-1.592;2022-11-20T14:42:02;8;6;
59546;PMS5003;45368;55.002;-1.592;2022-11-20T14:44:40;8;5;
59546;PMS5003;45368;55.002;-1.592;2022-11-20T14:47:10;4;4;
59546;PMS5003;45368;55.002;-1.592;2022-11-20T14:49:41;5;4;
59546;PMS5003;45368;55.002;-1.592;2022-11-20T14:52:11;5;4;
59546;PMS5003;45368;55.002;-1.592;2022-11-20T14:54:44;4;4;
59546;PMS5003;45368;55.002;-1.592;2022-11-20T14:57:20;5;3;
59546;PMS5003;45368;55.002;-1.592;2022-11-20T14:59:49;4;4;
59546;PMS5003;45368;55.002;-1.592;2022-11-20T15:02:16;5;4;
59546;PMS5003;45368;55.002;-1.592;2022-11-20T15:04:44;6;3;
59546;PMS5003;45368;55.002;-1.592;2022-11-20T15:07:22;3;2;
59546;PMS5003;45368;55.002;-1.592;2022-11-20T15:09:59;4;4;
59546;PMS5003;45368;55.002;-1.592;2022-11-20T15:12:27;8;3;
59546;PMS5003;45368;55.002;-1.592;2022-11-20T15:14:55;8;6;
59546;PMS5003;45368;55.002;-1.592;2022-11-20T15:17:23;5;4;
59546;PMS5003;45368;55.002;-1.592;2022-11-20T15:19:51;6;5;
59546;PMS5003;45368;55.002;-1.592;2022-11-20T15:22:20;6;6;
59546;PMS5003;45368;55.002;-1.592;2022-11-20T15:24:48;14;13;
59546;PMS5003;45368;55.002;-1.592;2022-11-20T15:27:14;5;5;
59546;PMS5003;45368;55.002;-1.592;2022-11-20T15:29:41;7;6;
59546;PMS5003;45368;55.002;-1.592;2022-11-20T15:32:08;6;5;
59546;PMS5003;45368;55.002;-1.592;2022-11-20T15:34:36;10;8;
59546;PMS5003;45368;55.002;-1.592;2022-11-20T15:37:03;8;5;
59546;PMS5003;45368;55.002;-1.592;2022-11-20T15:39:29;10;8;
59546;PMS5003;45368;55.002;-1.592;2022-11-20T15:41:56;7;7;
59546;PMS5003;45368;55.002;-1.592;2022-11-20T15:44:24;10;10;
59546;PMS5003;45368;55.002;-1.592;2022-11-20T15:46:51;11;9;
59546;PMS5003;45368;55.002;-1.592;2022-11-20T15:49:19;13;8;
59546;PMS5003;45368;55.002;-1.592;2022-11-20T15:51:46;9;7;
59546;PMS5003;45368;55.002;-1.592;2022-11-20T15:54:16;10;6;
59546;PMS5003;45368;55.002;-1.592;2022-11-20T15:56:44;9;7;
59546;PMS5003;45368;55.002;-1.592;2022-11-20T15:59:12;11;7;
59546;PMS5003;45368;55.002;-1.592;2022-11-20T16:01:39;7;7;
59546;PMS5003;45368;55.002;-1.592;2022-11-20T16:04:07;10;7;
59546;PMS5003;45368;55.002;-1.592;2022-11-20T16:06:36;6;5;
59546;PMS5003;45368;55.002;-1.592;2022-11-20T16:09:04;9;8;
59546;PMS5003;45368;55.002;-1.592;2022-11-20T16:11:32;8;6;
59546;PMS5003;45368;55.002;-1.592;2022-11-20T16:14:00;8;7;
59546;PMS5003;45368;55.002;-1.592;2022-11-20T16:16:28;10;9;
59546;PMS5003;45368;55.002;-1.592;2022-11-20T16:18:58;7;6;
59546;PMS5003;45368;55.002;-1.592;2022-11-20T16:21:26;9;7;
59546;PMS5003;45368;55.002;-1.592;2022-11-20T16:23:54;9;8;
59546;PMS5003;45368;55.002;-1.592;2022-11-20T16:26:23;5;4;
59546;PMS5003;45368;55.002;-1.592;2022-11-20T16:28:50;4;4;
59546;PMS5003;45368;55.002;-1.592;2022-11-20T16:31:22;8;5;
59546;PMS5003;45368;55.002;-1.592;2022-11-20T16:33:50;6;6;